Warsaw, IN

7:07 PM EDT on May 05, 2015 (GMT -0400)
15 South | | Change Station
CLOSE
Current Station
Personal Weather Station
Location: Warsaw, IN
Elevation: 840 ft
Nearby Weather Stations

Elev 840 ft 41.22 °N, 85.87 °W | Updated 9 minutes ago

Light Rain
Light Rain
66.6 °F
Feels Like 66.6 °F
N
2.0
Wind Variable Wind from NNE
Gusts 4.0 mph

Today
High -- | Low -- °F
--% Chance of Precip.
Yesterday
High -- | Low -- °F
Precip. -- in
6:36 AM 8:44 PM
Waning Gibbous, 97% visible
Pressure 30.16 in
Visibility 4.0 miles
Clouds Clear
Dew Point 64 °F
Humidity 91%
Rainfall 0.82 in
Snow Depth Not available.
UV 1 out of 12
Pollen 2.40 out of 12
Air Quality Not available.
Flu Activity Local Activity
METAR KASW 052255Z AUTO 07008KT 4SM -RA CLR 20/18 A3016 RMK AO2

More Conditions Fewer Conditions

Pressure 30.16 in
Visibility 4.0 miles
Clouds Clear
Dew Point 64 °F
Humidity 91%
Rainfall 0.82 in
Snow Depth Not available.
UV 1 out of 12
Pollen 2.40 out of 12
Air Quality Not available.
Flu Activity Local Activity
METAR KASW 052255Z AUTO 07008KT 4SM -RA CLR 20/18 A3016 RMK AO2

More Conditions Fewer Conditions

10-Day Weather Forecast

Almanac

Astronomy

May. 05, 2015 Rise Set
Actual Time
Civil Twilight
Nautical Twilight
Astronomical Twilight
Moon
Length of Visible Light
Length of Day
Tomorrow will be .
, % of the Moon is Illuminated

Today's Extremes

State Highs State Lows

Community

WunderPhotos

Upload Photos

1,819,001 photos uploaded!

WunderBlogs® & News

Nearby

Air Quality

  Air Quality AQ Index Pollutant
Not available.

Snow Depth

Station Depth Elevation

Earthquake Activity

City Distance Mag. Time & Date
Minimum magnitude displayed is 2.5.

Coastal Water Temperatures

Place Temperature

Stations

Nearby Weather Stations

Station Location Temp. Windchill Dew Point Humidity Wind Precip. Elev Updated Type